Latest Weather Observations for Weipa

IDQ60801

Issued at 10:02 pm EST Tuesday 6 December 2016 (issued every 30 minutes, with the page automatically refreshed every 10 minutes)

About weather observations | Map of weather stations | Latest weather observations for QLD | Other Formats
Station Details ID: 027045 Name: WEIPA AERO Lat: -12.68 Lon: 141.92 Height: 17.96 m
Data from the previous 72 hours. | See also: Recent months at Weipa
Date/Time
EST
Temp
°C
App
Temp
°C
Dew
Point
°C
Rel
Hum
%
Delta-T
°C
Wind Press
QNH
hPa
Press
MSL
hPa
Rain since
9am
mm
Dir  Spd
km/h
Gust
km/h
Spd
kts
Gust
kts
06/10:00pm 29.2 30.5 20.1 58 6.0 E 13 19 7 10 1009.2 - 0.0
06/09:30pm 29.8 30.7 20.1 56 6.4 ENE 15 24 8 13 1009.0 - 0.0
06/09:00pm 30.4 31.9 19.7 52 7.0 E 11 22 6 12 1008.6 1008.4 0.0
06/08:30pm 30.8 32.0 20.0 52 7.1 E 13 20 7 11 1008.2 - 0.0
06/08:00pm 29.6 34.7 23.4 69 4.3 N 2 6 1 3 1008.0 - 0.0
06/07:30pm 29.4 33.8 23.5 70 4.1 NW 6 9 3 5 1007.5 - 0.0
06/07:00pm 29.7 32.9 23.1 67 4.5 WNW 11 17 6 9 1007.0 - 0.0
06/06:30pm 31.0 34.1 22.8 61 5.6 WNW 11 19 6 10 1006.4 - 0.0
06/06:00pm 32.8 35.9 22.1 53 7.3 WSW 9 17 5 9 1005.9 1005.7 0.0
06/05:30pm 33.3 35.7 21.6 50 7.9 WSW 11 20 6 11 1005.6 - 0.0
06/05:00pm 34.5 37.0 22.4 49 8.3 W 13 19 7 10 1005.4 - 0.0
06/04:30pm 34.4 36.6 21.8 48 8.6 WNW 13 24 7 13 1005.4 - 0.0
06/04:00pm 37.0 36.8 15.8 28 13.4 NE 11 20 6 11 1005.3 - 0.0
06/03:30pm 36.5 35.9 15.6 29 13.2 E 13 22 7 12 1005.6 - 0.0
06/03:00pm 36.5 36.2 16.4 30 12.9 ENE 13 22 7 12 1005.9 1005.7 0.0
06/02:30pm 36.4 35.7 16.5 30 12.7 ESE 15 26 8 14 1006.2 - 0.0
06/02:00pm 35.5 35.7 16.7 32 12.0 E 11 17 6 9 1006.8 - 0.0
06/01:30pm 35.0 33.0 16.5 33 11.8 E 22 33 12 18 1007.4 - 0.0
06/01:00pm 35.0 33.8 16.2 32 11.9 ENE 17 28 9 15 1008.0 - 0.0
06/12:30pm 35.0 34.2 17.2 34 11.4 NE 17 41 9 22 1008.7 - 0.0
06/12:00pm 34.1 33.5 17.6 37 10.6 E 17 30 9 16 1009.3 1009.1 0.0
06/11:30am 33.0 32.6 18.8 43 9.3 E 19 32 10 17 1009.9 - 0.0
06/11:00am 32.8 33.0 19.4 45 8.8 ESE 17 30 9 16 1010.5 - 0.0
06/10:30am 31.7 31.5 19.3 47 8.1 E 19 28 10 15 1011.0 - 0.0
06/10:00am 31.4 30.4 18.9 47 8.1 ESE 22 32 12 17 1011.2 - 0.0
06/09:30am 30.2 31.3 20.5 56 6.4 ESE 15 24 8 13 1011.5 - 0.0
06/09:00am 29.7 29.8 20.3 57 6.2 E 20 30 11 16 1011.7 1011.5 0.0
06/08:30am 28.6 29.0 20.9 63 5.1 ESE 20 30 11 16 1011.7 - 0.0
06/08:00am 27.2 28.8 20.7 67 4.3 SE 13 20 7 11 1011.6 - 0.0
06/07:30am 25.8 28.1 20.7 73 3.3 SSE 9 13 5 7 1011.5 - 0.0
06/07:00am 24.7 27.7 20.8 79 2.6 SSE 6 9 3 5 1011.3 - 0.0
06/06:30am 23.5 27.6 20.7 84 1.8 CALM 0 4 0 2 1010.8 - 0.0
06/06:00am 23.0 26.8 20.1 84 1.9 CALM 0 0 0 0 1010.4 1010.2 0.0
06/05:30am 23.4 27.3 20.3 83 2.0 CALM 0 2 0 1 1010.1 - 0.0
06/05:00am 23.5 27.0 20.4 83 2.0 SSE 2 6 1 3 1009.6 - 0.0
06/04:30am 23.5 27.3 20.2 82 2.1 CALM 0 0 0 0 1009.3 - 0.0
06/04:00am 24.2 27.1 20.7 81 2.3 SE 6 7 3 4 1009.1 - 0.0
06/03:30am 24.4 28.4 20.5 79 2.5 CALM 0 0 0 0 1008.9 - 0.0
06/03:00am 24.8 28.3 20.3 76 2.9 SE 2 4 1 2 1008.8 1008.6 0.0
06/02:30am 25.2 28.4 20.5 75 3.1 E 4 6 2 3 1009.0 - 0.0
06/02:00am 25.6 28.4 20.5 73 3.3 ESE 6 7 3 4 1009.1 - 0.0
06/01:30am 26.0 28.8 20.4 71 3.7 E 6 7 3 4 1009.1 - 0.0
06/01:00am 26.4 29.0 20.4 69 3.9 ESE 7 13 4 7 1009.2 - 0.0
06/12:30am 26.7 28.5 20.4 68 4.1 ESE 11 15 6 8 1009.5 - 0.0
06/12:00am 27.0 28.4 20.3 66 4.4 ESE 13 20 7 11 1009.7 1009.5 0.0
 
Date/Time
EST
Temp
°C
App
Temp
°C
Dew
Point
°C
Rel
Hum
%
Delta-T
°C
Wind Press
QNH
hPa
Press
MSL
hPa
Rain since
9am
mm
Dir  Spd
km/h
Gust
km/h
Spd
kts
Gust
kts
05/11:30pm 27.5 28.1 20.2 64 4.8 E 17 24 9 13 1009.9 - 0.0
05/11:00pm 27.9 28.3 19.9 61 5.2 E 17 26 9 14 1010.0 - 0.0
05/10:30pm 28.2 29.4 20.0 61 5.4 E 13 20 7 11 1009.9 - 0.0
05/10:00pm 28.6 30.0 20.3 60 5.5 ENE 13 19 7 10 1009.6 - 0.0
05/09:30pm 29.2 31.0 20.4 59 5.8 E 11 19 6 10 1009.3 - 0.0
05/09:00pm 29.8 31.3 20.6 57 6.1 E 13 22 7 12 1009.0 1008.8 0.0
05/08:30pm 30.4 31.7 20.2 54 6.7 E 13 20 7 11 1008.7 - 0.0
05/08:00pm 31.0 31.2 20.2 52 7.1 E 19 32 10 17 1008.5 - 0.0
05/07:30pm 31.6 32.2 20.3 51 7.5 E 17 24 9 13 1008.0 - 0.0
05/07:00pm 32.4 32.8 19.9 47 8.3 E 17 30 9 16 1007.8 - 0.0
05/06:30pm 33.2 33.8 19.5 44 9.0 E 15 24 8 13 1007.4 - 0.0
05/06:00pm 33.8 34.1 19.6 43 9.4 E 17 24 9 13 1006.9 1006.7 0.0
05/05:30pm 35.3 34.2 19.4 39 10.5 E 24 37 13 20 1006.4 - 0.0
05/05:00pm 35.5 33.8 18.9 37 10.9 E 26 35 14 19 1006.2 - 0.0
05/04:30pm 36.9 36.4 19.0 35 11.8 ESE 20 32 11 17 1006.0 - 0.0
05/04:00pm 35.5 34.6 18.3 36 11.2 E 20 30 11 16 1006.0 - 0.0
05/03:30pm 35.9 35.8 18.8 36 11.3 E 17 26 9 14 1006.2 - 0.0
05/03:00pm 36.9 36.7 19.3 35 11.7 E 19 32 10 17 1006.4 1006.2 0.0
05/02:30pm 36.6 36.1 19.0 35 11.6 E 20 35 11 19 1006.8 - 0.0
05/02:00pm 36.2 35.4 18.4 35 11.7 E 20 32 11 17 1007.0 - 0.0
05/01:30pm 36.6 35.3 19.1 35 11.6 E 24 35 13 19 1007.3 - 0.0
05/01:00pm 36.2 35.7 19.0 36 11.4 E 20 32 11 17 1007.7 - 0.0
05/12:30pm 35.2 34.7 18.7 37 10.8 E 19 33 10 18 1008.3 - 0.0
05/12:00pm 34.6 34.1 19.0 39 10.3 E 20 35 11 19 1008.8 1008.6 0.0
05/11:30am 33.4 33.2 19.7 44 9.1 E 20 32 11 17 1009.4 - 0.0
05/11:00am 33.2 33.0 20.5 47 8.5 E 22 37 12 20 1009.9 - 0.0
05/10:30am 32.2 32.3 21.1 52 7.5 E 22 32 12 17 1010.3 - 0.0
05/10:00am 31.2 31.2 21.7 57 6.4 ESE 24 30 13 16 1010.7 - 0.0
05/09:30am 30.7 30.6 21.5 58 6.2 E 24 33 13 18 1010.9 - 0.0
05/09:00am 29.6 29.8 21.4 61 5.5 ESE 22 32 12 17 1011.0 1010.8 0.0
05/08:30am 29.2 29.5 21.6 63 5.1 ESE 22 32 12 17 1011.1 - 0.0
05/08:00am 28.7 30.6 22.1 67 4.5 ESE 15 24 8 13 1010.9 - 0.0
05/07:30am 27.2 29.4 21.9 73 3.6 ESE 13 19 7 10 1010.9 - 0.0
05/07:00am 26.1 29.1 21.9 77 2.8 SE 9 17 5 9 1010.6 - 0.0
05/06:30am 25.0 28.2 21.6 81 2.3 SE 7 11 4 6 1010.2 - 0.0
05/06:00am 24.5 27.8 21.4 83 2.1 SE 6 9 3 5 1009.7 1009.5 0.0
05/05:30am 24.7 27.9 21.3 81 2.2 ESE 6 7 3 4 1009.3 - 0.0
05/05:00am 24.8 27.8 21.3 81 2.3 ESE 7 11 4 6 1008.8 - 0.0
05/04:30am 24.9 27.9 21.3 80 2.4 ESE 7 11 4 6 1008.6 - 0.0
05/04:00am 25.1 28.3 21.3 79 2.5 E 6 7 3 4 1008.4 - 0.0
05/03:30am 25.1 28.1 21.2 79 2.6 E 7 11 4 6 1008.6 - 0.0
05/03:00am 25.4 28.0 21.2 77 2.8 E 9 11 5 6 1008.5 1008.3 0.0
05/02:30am 25.7 28.3 21.2 76 3.0 E 9 13 5 7 1008.7 - 0.0
05/02:00am 25.9 28.1 21.1 75 3.2 E 11 15 6 8 1008.9 - 0.0
05/01:30am 26.2 28.4 21.1 73 3.4 E 11 15 6 8 1009.2 - 0.0
05/01:00am 26.2 29.1 21.0 73 3.4 E 7 17 4 9 1009.5 - 0.0
05/12:30am 26.6 29.5 21.1 72 3.6 E 7 13 4 7 1009.9 - 0.0
05/12:00am 26.8 29.3 21.1 71 3.8 E 9 13 5 7 1010.2 1010.0 0.0
 
Date/Time
EST
Temp
°C
App
Temp
°C
Dew
Point
°C
Rel
Hum
%
Delta-T
°C
Wind Press
QNH
hPa
Press
MSL
hPa
Rain since
9am
mm
Dir  Spd
km/h
Gust
km/h
Spd
kts
Gust
kts
04/11:30pm 27.1 29.7 21.2 70 3.9 E 9 19 5 10 1010.4 - 0.0
04/11:00pm 27.3 29.9 21.2 69 4.1 E 9 15 5 8 1010.3 - 0.0
04/10:30pm 27.6 30.7 21.0 67 4.4 E 6 11 3 6 1010.4 - 0.0
04/10:00pm 28.1 30.9 20.9 65 4.8 E 7 11 4 6 1010.4 - 0.0
04/09:30pm 28.4 30.5 20.9 64 5.0 E 11 20 6 11 1010.2 - 0.0
04/09:00pm 28.8 30.4 20.7 61 5.4 E 13 20 7 11 1009.9 1009.7 0.0
04/08:30pm 29.3 30.0 20.5 59 5.8 E 17 26 9 14 1009.7 - 0.0
04/08:00pm 30.0 30.0 20.1 55 6.5 E 20 33 11 18 1009.4 - 0.0
04/07:30pm 31.0 30.4 18.9 48 7.9 E 20 35 11 19 1008.8 - 0.0
04/07:00pm 32.1 32.3 17.7 42 9.2 E 13 24 7 13 1008.0 - 0.0
04/06:30pm 33.0 32.8 16.7 37 10.3 E 13 20 7 11 1007.8 - 0.0
04/06:00pm 33.5 31.8 16.2 35 10.9 E 20 32 11 17 1007.3 1007.1 0.0
04/05:30pm 33.8 32.4 16.9 36 10.8 E 20 32 11 17 1007.2 - 0.0
04/05:00pm 34.6 34.3 18.3 38 10.6 ESE 17 24 9 13 1007.0 - 0.0
04/04:30pm 35.3 35.1 19.8 40 10.3 E 20 32 11 17 1006.8 - 0.0
04/04:00pm 33.5 35.9 20.1 45 8.9 NNE 7 17 4 9 1006.9 - 0.0
04/03:30pm 34.8 34.5 19.5 40 10.1 E 20 32 11 17 1007.1 - 0.0
04/03:00pm 33.4 34.3 19.2 43 9.3 ESE 13 19 7 10 1007.5 1007.3 0.0
04/02:30pm 33.4 33.6 19.4 43 9.2 ESE 17 30 9 16 1007.8 - 0.0
04/02:00pm 33.1 34.3 20.6 47 8.4 ESE 15 20 8 11 1008.3 - 0.0
04/01:30pm 32.7 34.7 20.8 49 8.0 ENE 11 20 6 11 1008.8 - 0.0
04/01:00pm 29.4 31.0 21.4 62 5.4 ENE 15 24 8 13 1009.6 - 0.0
04/12:44pm 27.7 31.7 23.7 79 2.8 E 9 17 5 9 1009.8 - 0.0
04/12:30pm 26.5 26.9 23.2 82 2.2 ESE 26 41 14 22 1010.1 - 0.0
04/12:26pm 26.3 25.1 22.3 78 2.7 ESE 32 50 17 27 1010.2 - 0.0
04/12:25pm 26.3 24.8 22.1 77 2.8 ESE 33 50 18 27 1010.1 - 0.0
04/12:19pm 29.9 27.4 20.8 58 6.1 E 35 50 19 27 1010.0 - 0.0
04/12:00pm 31.1 30.7 19.3 49 7.7 ENE 20 28 11 15 1009.7 1009.5 0.0
04/11:30am 31.9 32.9 19.5 47 8.1 E 13 22 7 12 1010.0 - 0.0
04/11:00am 31.9 31.6 19.5 47 8.1 E 20 30 11 16 1010.6 - 0.0
04/10:30am 32.1 31.9 19.4 47 8.3 E 19 30 10 16 1010.8 - 0.0
04/10:00am 30.7 30.7 19.7 52 7.2 ESE 19 28 10 15 1011.2 - 0.0
04/09:30am 30.2 30.1 20.0 54 6.7 E 20 32 11 17 1011.4 - 0.0
04/09:00am 29.7 29.0 20.2 56 6.3 ESE 24 33 13 18 1011.6 1011.4 -
04/08:30am 28.6 29.4 20.6 62 5.3 ESE 17 26 9 14 1011.6 - -
04/08:00am 27.4 28.5 20.4 65 4.6 SE 15 20 8 11 1011.6 - -
04/07:30am 25.9 28.2 20.6 72 3.5 SSE 9 15 5 8 1011.3 - -
04/07:00am 24.6 27.4 20.5 78 2.7 SE 6 11 3 6 1011.1 - -
04/06:30am 23.5 26.3 20.4 83 2.0 SSE 6 7 3 4 1010.7 - -
04/06:00am 22.8 25.9 20.2 85 1.7 SE 4 6 2 3 1010.4 1010.2 -
04/05:30am 23.0 26.0 20.0 83 1.9 SE 4 6 2 3 1010.1 - -
04/05:00am 23.1 25.8 20.2 84 1.9 SE 6 7 3 4 1009.7 - -
04/04:30am 23.1 26.1 20.1 83 1.9 ESE 4 6 2 3 1009.6 - -
04/04:00am 23.1 25.6 19.8 82 2.1 ESE 6 6 3 3 1009.3 - -
04/03:30am 23.7 26.6 19.8 79 2.5 ESE 4 6 2 3 1009.3 - -
04/03:00am 24.0 26.5 19.8 77 2.7 E 6 7 3 4 1009.3 1009.1 -
04/02:30am 24.3 26.6 19.9 76 2.8 E 7 9 4 5 1009.6 - -
04/02:00am 24.6 26.5 19.8 74 3.1 E 9 13 5 7 1009.7 - -
04/01:30am 24.9 26.8 19.7 73 3.4 E 9 11 5 6 1010.0 - -
04/01:00am 25.3 27.5 19.7 71 3.6 E 7 11 4 6 1010.3 - -
04/12:30am 25.7 27.1 19.5 68 4.0 E 11 15 6 8 1010.3 - -
04/12:00am 26.1 27.4 19.2 65 4.4 E 11 17 6 9 1010.8 1010.6 -
 
Date/Time
EST
Temp
°C
App
Temp
°C
Dew
Point
°C
Rel
Hum
%
Delta-T
°C
Wind Press
QNH
hPa
Press
MSL
hPa
Rain since
9am
mm
Dir  Spd
km/h
Gust
km/h
Spd
kts
Gust
kts
03/11:30pm 26.5 27.2 18.9 63 4.9 E 13 20 7 11 1011.0 - -
03/11:00pm 27.1 27.7 18.5 59 5.5 E 13 20 7 11 1011.3 - -
03/10:30pm 27.2 28.0 17.2 54 6.3 E 9 17 5 9 1011.2 - -

Other Formats:

Comma delimited format used in spreadsheet applications
http://www.bom.gov.au/fwo/IDQ60801/IDQ60801.94170.axf

JavaScript Object Notation format (JSON) in row-major order
http://www.bom.gov.au/fwo/IDQ60801/IDQ60801.94170.json